Time;durP1;ratioP1;P1;durP2;ratioP2;P2;SDS_P1;SDS_P2;PMS_P1;PMS_P2;Temp;Humidity;BMP_temperature;BMP_pressure;BME280_temperature;BME280_humidity;BME280_pressure;Samples;Min_cycle;Max_cycle;Signal;HPM_P1;HPM_P2
2022/07/05 00:00:46;;;;;;;5.95;3.28;;;;;;;;;;5030394;28;20124;-37
2022/07/05 00:03:11;;;;;;;10.90;4.13;;;;;;;;;;5031635;28;20053;-37
2022/07/05 00:05:37;;;;;;;3.80;2.88;;;;;;;;;;5031223;28;20163;-40
2022/07/05 00:08:03;;;;;;;3.55;3.00;;;;;;;;;;5031403;28;20033;-37
2022/07/05 00:10:28;;;;;;;4.70;3.05;;;;;;;;;;5031081;28;20025;-37
2022/07/05 00:12:54;;;;;;;7.15;2.97;;;;;;;;;;5031601;28;20025;-39
2022/07/05 00:15:19;;;;;;;6.43;3.47;;;;;;;;;;5031418;28;20028;-37
2022/07/05 00:17:45;;;;;;;5.90;3.42;;;;;;;;;;5031082;28;20025;-37
2022/07/05 00:20:10;;;;;;;4.40;2.72;;;;;;;;;;5031297;28;20025;-37
2022/07/05 00:22:35;;;;;;;3.75;3.40;;;;;;;;;;5030622;28;20048;-39
2022/07/05 00:25:01;;;;;;;6.65;3.50;;;;;;;;;;5031257;28;20025;-37
2022/07/05 00:27:26;;;;;;;7.88;3.13;;;;;;;;;;5031379;28;20033;-37
2022/07/05 00:29:51;;;;;;;9.68;3.75;;;;;;;;;;5031027;28;20067;-39
2022/07/05 00:32:17;;;;;;;10.30;3.10;;;;;;;;;;5031232;28;20092;-37
2022/07/05 00:34:42;;;;;;;6.38;3.17;;;;;;;;;;5030932;28;20457;-37
2022/07/05 00:37:07;;;;;;;4.57;2.50;;;;;;;;;;5031020;28;20044;-37
2022/07/05 00:39:33;;;;;;;6.40;3.03;;;;;;;;;;5031296;28;20064;-37
2022/07/05 00:42:00;;;;;;;9.05;3.45;;;;;;;;;;5030948;28;20028;-40
2022/07/05 00:44:30;;;;;;;5.28;2.63;;;;;;;;;;5031256;28;20485;-37
2022/07/05 00:46:56;;;;;;;7.88;3.92;;;;;;;;;;5032327;28;20120;-37
2022/07/05 00:49:21;;;;;;;8.32;3.15;;;;;;;;;;5034525;28;20125;-38
2022/07/05 00:51:47;;;;;;;6.50;3.00;;;;;;;;;;5016874;28;20017;-37
2022/07/05 00:54:12;;;;;;;4.45;3.35;;;;;;;;;;5034518;28;20033;-37
2022/07/05 00:56:37;;;;;;;4.32;2.90;;;;;;;;;;5034167;28;20018;-37
2022/07/05 00:59:03;;;;;;;7.65;3.38;;;;;;;;;;5034373;28;20029;-38
2022/07/05 01:01:28;;;;;;;7.35;3.08;;;;;;;;;;5034304;28;20018;-38
2022/07/05 01:03:53;;;;;;;6.28;3.33;;;;;;;;;;5032918;28;20112;-37
2022/07/05 01:06:19;;;;;;;5.28;3.10;;;;;;;;;;5033144;28;20115;-37
2022/07/05 01:08:45;;;;;;;3.70;3.03;;;;;;;;;;5032916;28;20021;-37
2022/07/05 01:11:13;;;;;;;6.70;3.60;;;;;;;;;;5033788;28;20115;-38
2022/07/05 01:13:38;;;;;;;6.35;2.97;;;;;;;;;;5034400;28;20071;-37
2022/07/05 01:16:04;;;;;;;10.63;4.05;;;;;;;;;;5033077;28;20010;-37
2022/07/05 01:18:29;;;;;;;5.88;3.28;;;;;;;;;;5033903;28;20410;-37
2022/07/05 01:20:55;;;;;;;6.18;3.08;;;;;;;;;;5033732;28;20080;-37
2022/07/05 01:23:22;;;;;;;8.15;3.08;;;;;;;;;;5033972;28;20037;-37
2022/07/05 01:25:47;;;;;;;5.22;3.25;;;;;;;;;;5033834;28;20035;-38
2022/07/05 01:28:14;;;;;;;4.70;2.75;;;;;;;;;;5033598;28;20022;-39
2022/07/05 01:30:39;;;;;;;5.43;3.40;;;;;;;;;;5034202;28;20036;-37
2022/07/05 01:33:05;;;;;;;4.20;3.40;;;;;;;;;;5033868;28;20515;-37
2022/07/05 01:35:30;;;;;;;4.97;3.08;;;;;;;;;;5032201;28;20084;-37
2022/07/05 01:37:56;;;;;;;8.38;2.85;;;;;;;;;;5033282;28;20115;-37
2022/07/05 01:40:21;;;;;;;4.88;3.38;;;;;;;;;;5033686;28;20021;-37
2022/07/05 01:42:46;;;;;;;6.32;3.20;;;;;;;;;;5033934;28;20028;-37
2022/07/05 01:45:12;;;;;;;5.80;3.20;;;;;;;;;;5032380;28;20026;-37
2022/07/05 01:47:45;;;;;;;5.35;3.00;;;;;;;;;;5033499;28;20487;-37
2022/07/05 01:50:12;;;;;;;4.60;2.80;;;;;;;;;;5033578;28;20025;-37
2022/07/05 01:52:39;;;;;;;5.20;3.40;;;;;;;;;;5032465;28;20032;-37
2022/07/05 01:55:04;;;;;;;5.60;3.90;;;;;;;;;;5031957;28;20024;-37
2022/07/05 01:57:30;;;;;;;5.10;3.40;;;;;;;;;;5033123;28;20041;-38
2022/07/05 01:59:55;;;;;;;4.38;3.33;;;;;;;;;;5033170;28;20029;-39
2022/07/05 02:02:20;;;;;;;6.57;3.88;;;;;;;;;;5032135;28;20481;-38
2022/07/05 02:04:46;;;;;;;5.15;3.47;;;;;;;;;;5033328;28;20028;-37
2022/07/05 02:07:11;;;;;;;5.22;3.33;;;;;;;;;;5033320;28;20502;-37
2022/07/05 02:09:37;;;;;;;11.57;3.30;;;;;;;;;;5031430;28;20036;-37
2022/07/05 02:12:03;;;;;;;6.10;3.47;;;;;;;;;;5032032;28;20469;-37
2022/07/05 02:14:29;;;;;;;8.20;3.38;;;;;;;;;;5031974;28;20423;-37
2022/07/05 02:16:54;;;;;;;10.60;3.58;;;;;;;;;;5032914;28;20033;-37
2022/07/05 02:19:19;;;;;;;6.60;3.15;;;;;;;;;;5033385;28;20139;-37
2022/07/05 02:21:45;;;;;;;8.23;3.33;;;;;;;;;;5032553;28;20029;-38
2022/07/05 02:24:11;;;;;;;4.90;3.22;;;;;;;;;;5032867;28;20025;-37
2022/07/05 02:26:36;;;;;;;6.25;3.33;;;;;;;;;;5031250;28;20400;-37
2022/07/05 02:29:02;;;;;;;7.15;3.10;;;;;;;;;;5033198;28;20024;-37
2022/07/05 02:31:27;;;;;;;12.80;4.70;;;;;;;;;;5032756;28;20021;-37
2022/07/05 02:33:53;;;;;;;4.60;2.95;;;;;;;;;;5032148;28;20576;-38
2022/07/05 02:36:18;;;;;;;5.32;3.67;;;;;;;;;;5032378;28;20050;-37
2022/07/05 02:38:44;;;;;;;3.88;3.25;;;;;;;;;;5032297;28;20064;-37
2022/07/05 02:41:10;;;;;;;5.22;3.10;;;;;;;;;;5032178;28;20031;-37
2022/07/05 02:43:36;;;;;;;4.38;3.28;;;;;;;;;;5032419;28;20022;-37
2022/07/05 02:46:01;;;;;;;10.00;3.60;;;;;;;;;;5032392;28;20025;-37
2022/07/05 02:48:27;;;;;;;4.93;3.40;;;;;;;;;;5032488;28;20024;-37
2022/07/05 02:50:52;;;;;;;7.45;3.80;;;;;;;;;;5032295;28;20037;-38
2022/07/05 02:53:17;;;;;;;5.65;3.13;;;;;;;;;;5032798;28;20025;-37
2022/07/05 02:55:43;;;;;;;7.03;4.50;;;;;;;;;;5032088;28;20021;-39
2022/07/05 02:58:08;;;;;;;5.63;3.55;;;;;;;;;;5030386;28;20121;-38
2022/07/05 03:00:33;;;;;;;6.70;3.55;;;;;;;;;;5032106;28;20017;-37
2022/07/05 03:02:59;;;;;;;4.00;3.13;;;;;;;;;;5032293;28;20067;-37
2022/07/05 03:05:24;;;;;;;4.93;3.35;;;;;;;;;;5032312;28;20072;-40
2022/07/05 03:07:49;;;;;;;5.57;3.05;;;;;;;;;;5031756;28;20025;-37
2022/07/05 03:10:15;;;;;;;4.57;3.28;;;;;;;;;;5031046;28;20028;-38
2022/07/05 03:12:40;;;;;;;4.97;3.50;;;;;;;;;;5032086;28;20071;-37
2022/07/05 03:15:06;;;;;;;5.72;3.67;;;;;;;;;;5032224;28;20104;-37
2022/07/05 03:17:31;;;;;;;3.47;3.03;;;;;;;;;;5031654;28;20068;-39
2022/07/05 03:19:56;;;;;;;3.65;2.80;;;;;;;;;;5031822;28;20013;-37
2022/07/05 03:22:22;;;;;;;6.47;3.03;;;;;;;;;;5031539;28;20531;-37
2022/07/05 03:24:47;;;;;;;6.30;3.03;;;;;;;;;;5030723;28;20028;-38
2022/07/05 03:27:12;;;;;;;5.63;4.28;;;;;;;;;;5030179;28;20023;-38
2022/07/05 03:29:38;;;;;;;4.72;3.13;;;;;;;;;;5030659;28;20028;-37
2022/07/05 03:32:03;;;;;;;7.55;3.17;;;;;;;;;;5030289;28;20022;-38
2022/07/05 03:34:28;;;;;;;5.65;3.08;;;;;;;;;;5029857;28;20060;-39
2022/07/05 03:36:54;;;;;;;6.57;3.30;;;;;;;;;;5031301;28;20108;-37
2022/07/05 03:39:19;;;;;;;3.40;2.92;;;;;;;;;;5030164;28;20017;-38
2022/07/05 03:41:44;;;;;;;8.50;3.20;;;;;;;;;;5031667;28;20024;-37
2022/07/05 03:44:10;;;;;;;4.05;2.80;;;;;;;;;;5031579;28;20105;-38
2022/07/05 03:46:35;;;;;;;3.83;3.15;;;;;;;;;;5031541;28;20037;-37
2022/07/05 03:49:00;;;;;;;7.32;3.28;;;;;;;;;;5031583;28;20379;-37
2022/07/05 03:51:26;;;;;;;7.45;3.08;;;;;;;;;;5031755;28;20030;-37
2022/07/05 03:53:51;;;;;;;9.30;3.05;;;;;;;;;;5031187;28;20034;-37
2022/07/05 03:56:19;;;;;;;10.60;3.42;;;;;;;;;;5031432;28;20021;-38
2022/07/05 03:58:46;;;;;;;5.53;3.00;;;;;;;;;;5031149;28;20040;-37
2022/07/05 04:01:12;;;;;;;11.35;2.97;;;;;;;;;;5031673;28;20025;-38
2022/07/05 04:03:37;;;;;;;6.97;2.90;;;;;;;;;;5031452;28;20025;-37
2022/07/05 04:06:02;;;;;;;7.23;2.83;;;;;;;;;;5031457;28;20025;-37
2022/07/05 04:08:28;;;;;;;4.90;2.58;;;;;;;;;;5031564;28;20239;-37
2022/07/05 04:10:53;;;;;;;5.17;2.70;;;;;;;;;;5029705;28;20464;-37
2022/07/05 04:13:18;;;;;;;6.55;3.15;;;;;;;;;;5031373;28;20251;-37
2022/07/05 04:15:44;;;;;;;5.35;3.17;;;;;;;;;;5031464;28;20384;-37
2022/07/05 04:18:09;;;;;;;5.30;3.17;;;;;;;;;;5031454;28;20034;-37
2022/07/05 04:20:34;;;;;;;7.15;2.78;;;;;;;;;;5029785;28;20485;-38
2022/07/05 04:23:00;;;;;;;6.80;2.75;;;;;;;;;;5034419;28;20020;-37
2022/07/05 04:25:25;;;;;;;9.48;3.00;;;;;;;;;;5033951;28;20022;-38
2022/07/05 04:27:52;;;;;;;10.00;3.70;;;;;;;;;;5034982;28;20032;-37
2022/07/05 04:30:18;;;;;;;12.07;3.58;;;;;;;;;;5035318;28;20033;-39
2022/07/05 04:32:43;;;;;;;11.15;3.13;;;;;;;;;;5034863;28;20025;-37
2022/07/05 04:35:09;;;;;;;4.22;3.00;;;;;;;;;;5033279;28;20053;-37
2022/07/05 04:37:34;;;;;;;6.38;3.33;;;;;;;;;;5033456;28;20025;-38
2022/07/05 04:40:00;;;;;;;3.67;3.10;;;;;;;;;;5034517;28;20056;-37
2022/07/05 04:42:25;;;;;;;6.85;2.83;;;;;;;;;;5034965;28;20022;-37
2022/07/05 04:44:50;;;;;;;4.18;2.60;;;;;;;;;;5034672;28;20449;-38
2022/07/05 04:47:16;;;;;;;3.85;2.50;;;;;;;;;;5034581;28;20079;-39
2022/07/05 04:49:41;;;;;;;5.18;2.75;;;;;;;;;;5033151;28;20021;-38
2022/07/05 04:52:06;;;;;;;4.23;2.77;;;;;;;;;;5034586;28;20030;-37
2022/07/05 04:54:31;;;;;;;2.97;2.63;;;;;;;;;;5033098;28;20251;-39
2022/07/05 04:56:57;;;;;;;6.60;2.42;;;;;;;;;;5034218;28;20075;-38
2022/07/05 04:59:22;;;;;;;4.53;2.83;;;;;;;;;;5034035;28;20021;-37
2022/07/05 05:01:47;;;;;;;7.57;2.53;;;;;;;;;;5033097;28;20026;-37
2022/07/05 05:04:13;;;;;;;3.75;2.65;;;;;;;;;;5034458;28;20734;-37
2022/07/05 05:06:38;;;;;;;8.63;2.58;;;;;;;;;;5034264;28;20106;-37
2022/07/05 05:09:03;;;;;;;4.53;2.50;;;;;;;;;;5032657;28;20115;-37
2022/07/05 05:11:29;;;;;;;3.28;2.50;;;;;;;;;;5034065;28;20021;-38
2022/07/05 05:13:54;;;;;;;6.68;2.67;;;;;;;;;;5032612;28;20430;-37
2022/07/05 05:16:20;;;;;;;10.70;3.13;;;;;;;;;;5034088;28;20464;-39
2022/07/05 05:18:45;;;;;;;5.20;2.50;;;;;;;;;;5034183;28;20040;-37
2022/07/05 05:21:11;;;;;;;5.57;2.53;;;;;;;;;;5032402;28;20443;-37
2022/07/05 05:23:36;;;;;;;5.18;2.88;;;;;;;;;;5032908;28;20027;-37
2022/07/05 05:26:02;;;;;;;5.78;2.83;;;;;;;;;;5032574;28;20108;-38
2022/07/05 05:28:27;;;;;;;9.55;2.42;;;;;;;;;;5033380;28;20387;-37
2022/07/05 05:30:52;;;;;;;6.47;2.67;;;;;;;;;;5033710;28;20508;-38
2022/07/05 05:33:18;;;;;;;7.30;2.55;;;;;;;;;;5033077;28;20025;-38
2022/07/05 05:35:43;;;;;;;8.77;2.80;;;;;;;;;;5033449;28;20060;-38
2022/07/05 05:38:08;;;;;;;4.78;2.50;;;;;;;;;;5033342;28;20036;-37
2022/07/05 05:40:34;;;;;;;7.75;2.40;;;;;;;;;;5030654;28;20025;-37
2022/07/05 05:43:00;;;;;;;6.43;2.40;;;;;;;;;;5036226;28;20032;-38
2022/07/05 05:45:25;;;;;;;7.75;2.75;;;;;;;;;;5033344;28;20045;-39
2022/07/05 05:47:50;;;;;;;4.45;2.60;;;;;;;;;;5033567;28;20021;-41
2022/07/05 05:50:23;;;;;;;11.65;3.10;;;;;;;;;;5033089;28;20037;-38
2022/07/05 05:52:49;;;;;;;7.10;3.13;;;;;;;;;;5032936;28;20028;-38
2022/07/05 05:55:15;;;;;;;11.57;2.75;;;;;;;;;;5032791;28;20409;-37
2022/07/05 05:57:40;;;;;;;5.63;2.38;;;;;;;;;;5031618;28;20037;-39
2022/07/05 06:00:06;;;;;;;2.63;2.20;;;;;;;;;;5029640;28;20075;-39
2022/07/05 06:02:31;;;;;;;5.70;2.22;;;;;;;;;;5021050;28;20112;-47
2022/07/05 06:04:57;;;;;;;7.05;2.40;;;;;;;;;;5024692;28;20020;-37
2022/07/05 06:07:22;;;;;;;5.23;2.33;;;;;;;;;;5026566;28;20033;-37
2022/07/05 06:09:47;;;;;;;4.57;1.80;;;;;;;;;;5032512;28;20032;-38
2022/07/05 06:12:13;;;;;;;5.13;2.10;;;;;;;;;;5035714;28;20048;-38
2022/07/05 06:14:38;;;;;;;3.67;2.15;;;;;;;;;;5050950;28;20254;-36
2022/07/05 06:17:04;;;;;;;14.63;4.07;;;;;;;;;;5034688;28;20095;-36
2022/07/05 06:19:29;;;;;;;3.75;2.00;;;;;;;;;;5029944;28;20255;-37
2022/07/05 06:21:54;;;;;;;13.27;2.33;;;;;;;;;;5028085;28;20040;-38
2022/07/05 06:24:20;;;;;;;4.05;2.15;;;;;;;;;;5031542;28;20029;-36
2022/07/05 06:26:45;;;;;;;7.55;2.28;;;;;;;;;;5028683;28;20075;-37
2022/07/05 06:29:10;;;;;;;7.22;2.22;;;;;;;;;;5027902;28;20168;-40
2022/07/05 06:31:36;;;;;;;7.33;2.10;;;;;;;;;;5025754;28;20041;-37
2022/07/05 06:34:01;;;;;;;5.22;2.22;;;;;;;;;;5029567;28;20305;-41
2022/07/05 06:36:26;;;;;;;11.60;2.72;;;;;;;;;;5025188;28;20405;-38
2022/07/05 06:38:52;;;;;;;7.43;2.15;;;;;;;;;;5025391;28;20044;-37
2022/07/05 06:41:18;;;;;;;4.15;2.03;;;;;;;;;;5025122;28;20504;-39
2022/07/05 06:43:44;;;;;;;9.50;2.13;;;;;;;;;;5029316;28;20037;-38
2022/07/05 06:46:09;;;;;;;4.95;2.13;;;;;;;;;;5028797;28;20270;-40
2022/07/05 06:48:35;;;;;;;4.73;2.30;;;;;;;;;;5029396;28;20075;-39
2022/07/05 06:51:00;;;;;;;8.38;1.92;;;;;;;;;;5030366;28;20096;-35
2022/07/05 06:53:25;;;;;;;7.10;2.10;;;;;;;;;;5029738;28;20104;-35
2022/07/05 06:55:51;;;;;;;9.37;1.97;;;;;;;;;;5030320;28;20036;-37
2022/07/05 06:58:16;;;;;;;2.07;1.77;;;;;;;;;;5026697;28;20044;-37
2022/07/05 07:00:42;;;;;;;5.93;1.85;;;;;;;;;;5029113;28;20266;-36
2022/07/05 07:03:07;;;;;;;4.93;1.75;;;;;;;;;;5025573;28;20026;-36
2022/07/05 07:05:33;;;;;;;5.43;1.88;;;;;;;;;;5028882;28;20453;-35
2022/07/05 07:10:42;;;;;;;3.53;1.63;;;;;;;;;;5036215;28;20116;-35
2022/07/05 07:13:07;;;;;;;4.78;1.73;;;;;;;;;;5032804;28;20104;-36
2022/07/05 07:15:33;;;;;;;3.45;1.88;;;;;;;;;;5030803;28;20460;-36
2022/07/05 07:17:59;;;;;;;4.25;1.80;;;;;;;;;;5023365;28;20120;-35
2022/07/05 07:20:24;;;;;;;2.58;2.13;;;;;;;;;;5030825;28;20033;-36
2022/07/05 07:22:50;;;;;;;4.13;1.80;;;;;;;;;;5026426;28;20076;-36
2022/07/05 07:25:15;;;;;;;8.80;2.20;;;;;;;;;;5023086;28;20492;-36
2022/07/05 07:27:48;;;;;;;13.45;2.22;;;;;;;;;;5027202;28;20105;-37
2022/07/05 07:30:14;;;;;;;5.35;1.77;;;;;;;;;;5026601;28;20071;-40
2022/07/05 07:32:39;;;;;;;9.85;2.20;;;;;;;;;;5029867;28;20032;-39
2022/07/05 07:35:05;;;;;;;6.05;2.10;;;;;;;;;;5030622;28;20053;-36
2022/07/05 07:37:30;;;;;;;8.07;1.92;;;;;;;;;;5030648;28;20041;-41
2022/07/05 07:39:56;;;;;;;3.20;1.90;;;;;;;;;;5029357;28;20465;-39
2022/07/05 07:42:21;;;;;;;6.22;1.85;;;;;;;;;;5028829;28;21086;-39
2022/07/05 07:44:47;;;;;;;2.27;1.93;;;;;;;;;;5022953;28;20011;-37
2022/07/05 07:47:12;;;;;;;2.77;1.77;;;;;;;;;;5023605;28;20033;-37
2022/07/05 07:49:37;;;;;;;8.60;2.20;;;;;;;;;;5028908;28;20238;-38
2022/07/05 07:52:03;;;;;;;8.87;2.00;;;;;;;;;;5021563;28;20255;-38
2022/07/05 07:54:28;;;;;;;5.47;2.22;;;;;;;;;;5027798;28;20270;-39
2022/07/05 07:56:54;;;;;;;6.65;1.95;;;;;;;;;;5033991;28;20469;-37
2022/07/05 07:59:19;;;;;;;6.15;2.03;;;;;;;;;;5034809;28;20109;-37
2022/07/05 08:01:44;;;;;;;4.80;1.75;;;;;;;;;;5034528;28;20420;-37
2022/07/05 08:04:11;;;;;;;3.50;2.10;;;;;;;;;;5034915;28;20449;-36
2022/07/05 08:06:36;;;;;;;4.05;2.05;;;;;;;;;;5034796;28;20033;-36
2022/07/05 08:09:02;;;;;;;2.30;1.87;;;;;;;;;;5034862;28;20035;-37
2022/07/05 08:11:27;;;;;;;4.50;1.85;;;;;;;;;;5033924;28;20377;-37
2022/07/05 08:13:52;;;;;;;7.80;2.07;;;;;;;;;;5032468;28;20372;-37
2022/07/05 08:16:18;;;;;;;3.43;2.27;;;;;;;;;;5034634;28;20024;-36
2022/07/05 08:21:39;;;;;;;7.65;1.90;;;;;;;;;;5034146;28;20250;-38
2022/07/05 08:24:06;;;;;;;3.55;1.73;;;;;;;;;;5033538;28;20479;-39
2022/07/05 08:26:32;;;;;;;4.65;2.03;;;;;;;;;;5034801;28;20017;-42
2022/07/05 08:29:04;;;;;;;7.07;1.80;;;;;;;;;;5034227;28;20385;-37
2022/07/05 08:31:31;;;;;;;4.45;2.10;;;;;;;;;;5033746;28;20032;-38
2022/07/05 08:33:56;;;;;;;5.60;2.17;;;;;;;;;;5034288;28;20065;-38
2022/07/05 08:36:22;;;;;;;6.75;2.38;;;;;;;;;;5033871;28;20084;-38
2022/07/05 08:38:47;;;;;;;3.78;2.03;;;;;;;;;;5032998;28;20048;-37
2022/07/05 08:41:16;;;;;;;9.38;2.40;;;;;;;;;;5033216;28;20505;-40
2022/07/05 08:43:44;;;;;;;6.45;2.35;;;;;;;;;;5033450;28;20034;-39
2022/07/05 08:46:10;;;;;;;3.88;2.13;;;;;;;;;;5033988;28;20021;-37
2022/07/05 08:48:41;;;;;;;5.40;2.42;;;;;;;;;;5033712;28;20036;-37
2022/07/05 08:51:08;;;;;;;2.17;2.00;;;;;;;;;;5032904;28;20029;-37
2022/07/05 08:53:34;;;;;;;4.90;2.00;;;;;;;;;;5032481;28;20076;-39
2022/07/05 08:55:59;;;;;;;10.90;2.53;;;;;;;;;;5034217;28;20021;-38
2022/07/05 08:58:24;;;;;;;9.20;2.60;;;;;;;;;;5033688;28;20091;-37
2022/07/05 09:00:50;;;;;;;5.20;2.33;;;;;;;;;;5033250;28;20022;-37
2022/07/05 09:03:16;;;;;;;7.72;2.22;;;;;;;;;;5032025;28;20365;-37
2022/07/05 09:05:43;;;;;;;6.18;1.90;;;;;;;;;;5033532;28;20026;-38
2022/07/05 09:08:14;;;;;;;5.03;2.30;;;;;;;;;;5032373;28;20100;-37
2022/07/05 09:10:40;;;;;;;5.22;2.28;;;;;;;;;;5033417;28;20105;-37
2022/07/05 09:13:07;;;;;;;11.40;2.40;;;;;;;;;;5035972;28;20411;-36
2022/07/05 09:15:32;;;;;;;4.70;2.38;;;;;;;;;;5033315;28;20112;-38
2022/07/05 09:17:57;;;;;;;24.80;3.13;;;;;;;;;;5037879;28;20112;-37
2022/07/05 09:20:26;;;;;;;11.90;2.45;;;;;;;;;;5032499;28;20396;-37
2022/07/05 09:22:54;;;;;;;;;;;;;;;;;;5030073;28;20075;-37
2022/07/05 09:25:20;;;;;;;4.35;2.60;;;;;;;;;;5028522;28;20320;-37
2022/07/05 09:27:51;;;;;;;3.75;2.80;;;;;;;;;;5031614;28;20480;-36
2022/07/05 09:30:28;;;;;;;8.07;2.40;;;;;;;;;;5032654;28;20082;-39
2022/07/05 09:33:19;;;;;;;5.93;2.70;;;;;;;;;;5028064;28;20061;-37
2022/07/05 09:36:11;;;;;;;8.30;2.42;;;;;;;;;;5029704;28;20056;-36
2022/07/05 09:38:37;;;;;;;4.35;2.90;;;;;;;;;;5009385;28;20120;-37
2022/07/05 09:41:02;;;;;;;8.30;2.53;;;;;;;;;;5011172;28;20465;-37
2022/07/05 09:43:28;;;;;;;5.00;2.50;;;;;;;;;;5010237;28;20109;-37
2022/07/05 09:45:57;;;;;;;2.67;2.33;;;;;;;;;;5012279;28;20018;-36
2022/07/05 09:48:22;;;;;;;;;;;;;;;;;;5012609;28;20438;-36
2022/07/05 09:50:48;;;;;;;2.30;2.10;;;;;;;;;;5011390;28;19905;-39
2022/07/05 09:53:13;;;;;;;2.83;2.17;;;;;;;;;;5011319;28;20389;-36
2022/07/05 09:55:40;;;;;;;2.70;1.90;;;;;;;;;;5016433;28;20030;-36
2022/07/05 09:58:06;;;;;;;5.05;2.30;;;;;;;;;;5020333;28;20597;-36
2022/07/05 10:00:31;;;;;;;2.38;2.17;;;;;;;;;;5027457;28;20109;-37
2022/07/05 10:03:01;;;;;;;5.00;2.10;;;;;;;;;;5012167;28;20109;-36
2022/07/05 10:05:31;;;;;;;10.73;2.20;;;;;;;;;;5015420;28;20500;-36
2022/07/05 10:07:57;;;;;;;4.50;2.30;;;;;;;;;;5027821;28;20457;-37
2022/07/05 10:10:23;;;;;;;15.45;3.38;;;;;;;;;;5012392;28;20021;-40
2022/07/05 10:12:50;;;;;;;2.80;2.28;;;;;;;;;;5018027;28;20040;-36
2022/07/05 10:15:19;;;;;;;3.35;2.30;;;;;;;;;;5025539;28;20033;-36
2022/07/05 10:17:45;;;;;;;4.43;2.30;;;;;;;;;;5015649;28;20033;-37
2022/07/05 10:20:14;;;;;;;7.22;2.05;;;;;;;;;;5012789;28;20124;-37
2022/07/05 10:22:39;;;;;;;8.63;2.45;;;;;;;;;;5011837;28;20050;-36
2022/07/05 10:25:05;;;;;;;6.40;1.88;;;;;;;;;;5017827;28;20061;-36
2022/07/05 10:27:31;;;;;;;6.22;2.47;;;;;;;;;;5017686;28;20029;-36
2022/07/05 10:29:57;;;;;;;4.40;2.67;;;;;;;;;;5012287;28;20030;-37
2022/07/05 10:32:24;;;;;;;4.28;2.10;;;;;;;;;;5014401;28;20013;-36
2022/07/05 10:34:51;;;;;;;13.15;2.00;;;;;;;;;;5031652;28;20594;-38
2022/07/05 10:37:16;;;;;;;12.57;1.80;;;;;;;;;;5031775;28;20037;-37
2022/07/05 10:39:42;;;;;;;13.98;2.20;;;;;;;;;;5031821;28;20029;-39
2022/07/05 10:42:07;;;;;;;28.02;2.92;;;;;;;;;;5029888;28;20026;-36
2022/07/05 10:44:33;;;;;;;267.80;17.95;;;;;;;;;;5031937;28;20112;-37
2022/07/05 10:47:10;;;;;;;17.80;3.00;;;;;;;;;;5031601;28;20476;-37
2022/07/05 10:49:36;;;;;;;20.00;2.40;;;;;;;;;;5031847;28;20083;-36
2022/07/05 10:52:02;;;;;;;19.48;2.55;;;;;;;;;;5030794;28;20104;-36
2022/07/05 10:54:27;;;;;;;25.50;2.75;;;;;;;;;;5027739;28;20101;-39
2022/07/05 10:57:11;;;;;;;45.55;4.97;;;;;;;;;;5042168;28;20052;-38
2022/07/05 11:00:15;;;;;;;38.25;2.60;;;;;;;;;;5021062;28;20037;-37
2022/07/05 11:02:42;;;;;;;16.73;2.78;;;;;;;;;;5015547;28;20072;-38
2022/07/05 11:05:09;;;;;;;13.70;1.70;;;;;;;;;;5009333;28;20033;-38
2022/07/05 11:07:53;;;;;;;7.25;2.00;;;;;;;;;;5004366;28;20044;-38
2022/07/05 11:10:18;;;;;;;7.65;1.55;;;;;;;;;;5024858;28;20029;-37
2022/07/05 11:12:43;;;;;;;14.05;2.08;;;;;;;;;;5026376;28;20014;-36
2022/07/05 11:15:11;;;;;;;10.95;1.70;;;;;;;;;;5028731;28;20026;-38
2022/07/05 11:17:36;;;;;;;8.57;1.70;;;;;;;;;;5026176;28;20045;-37
2022/07/05 11:20:02;;;;;;;8.52;2.40;;;;;;;;;;5025200;28;20021;-37
2022/07/05 11:22:27;;;;;;;12.17;2.17;;;;;;;;;;5028564;28;20053;-38
2022/07/05 11:24:53;;;;;;;11.73;1.80;;;;;;;;;;5026227;28;20265;-40
2022/07/05 11:27:18;;;;;;;18.42;2.22;;;;;;;;;;5033985;28;20033;-37
2022/07/05 11:29:43;;;;;;;49.83;5.83;;;;;;;;;;5030419;28;20072;-38
2022/07/05 11:32:13;;;;;;;32.33;5.20;;;;;;;;;;5030600;28;20250;-38
2022/07/05 11:34:39;;;;;;;31.75;3.30;;;;;;;;;;5011367;28;20342;-38
2022/07/05 11:37:21;;;;;;;16.40;2.83;;;;;;;;;;5020872;28;20025;-37
2022/07/05 11:40:06;;;;;;;25.35;4.25;;;;;;;;;;5028191;28;20599;-39
2022/07/05 11:42:33;;;;;;;12.48;2.22;;;;;;;;;;5009282;28;20022;-38
2022/07/05 11:44:59;;;;;;;9.20;2.60;;;;;;;;;;5029209;28;20022;-38
2022/07/05 11:47:24;;;;;;;10.82;2.13;;;;;;;;;;5029328;28;20099;-37
2022/07/05 11:49:53;;;;;;;5.15;1.45;;;;;;;;;;5029924;28;20032;-39
2022/07/05 11:52:24;;;;;;;18.75;2.78;;;;;;;;;;5027292;28;20030;-38
2022/07/05 11:54:49;;;;;;;13.98;3.33;;;;;;;;;;5020742;28;20500;-37
2022/07/05 11:57:15;;;;;;;14.63;2.35;;;;;;;;;;5029992;28;20045;-43
2022/07/05 11:59:40;;;;;;;7.22;2.10;;;;;;;;;;5050140;28;20120;-38
2022/07/05 12:02:05;;;;;;;6.35;1.70;;;;;;;;;;5037158;28;20025;-38
2022/07/05 12:04:31;;;;;;;2.50;1.30;;;;;;;;;;5030785;28;20377;-38
2022/07/05 12:06:57;;;;;;;6.75;1.63;;;;;;;;;;5029778;28;20091;-43
2022/07/05 12:09:23;;;;;;;11.13;1.58;;;;;;;;;;5029339;28;20025;-39
2022/07/05 12:14:33;;;;;;;7.28;1.73;;;;;;;;;;5026264;28;20036;-37
2022/07/05 12:17:12;;;;;;;2.90;1.40;;;;;;;;;;5029527;28;20029;-38
2022/07/05 12:19:37;;;;;;;7.63;2.17;;;;;;;;;;5040285;28;20041;-36
2022/07/05 12:22:02;;;;;;;11.30;2.83;;;;;;;;;;5014824;28;20028;-36
2022/07/05 12:24:28;;;;;;;3.35;1.73;;;;;;;;;;5028526;28;20536;-37
2022/07/05 12:26:53;;;;;;;7.00;1.98;;;;;;;;;;5029278;28;20056;-36
2022/07/05 12:29:19;;;;;;;5.68;2.00;;;;;;;;;;5028340;28;20486;-37
2022/07/05 12:32:03;;;;;;;8.25;3.30;;;;;;;;;;5027661;28;20018;-35
2022/07/05 12:34:30;;;;;;;2.60;1.88;;;;;;;;;;5029753;28;20373;-36
2022/07/05 12:36:56;;;;;;;5.20;2.10;;;;;;;;;;5029477;28;20071;-36
2022/07/05 12:39:21;;;;;;;8.23;2.30;;;;;;;;;;5029049;28;20029;-36
2022/07/05 12:41:47;;;;;;;3.88;2.40;;;;;;;;;;5020467;28;20599;-40
2022/07/05 12:44:13;;;;;;;2.67;2.20;;;;;;;;;;5027584;28;20017;-35
2022/07/05 12:46:39;;;;;;;3.22;2.22;;;;;;;;;;5031888;28;20017;-36
2022/07/05 12:49:04;;;;;;;7.15;2.47;;;;;;;;;;5030208;28;20022;-36
2022/07/05 12:51:33;;;;;;;2.70;2.10;;;;;;;;;;5031449;28;20051;-36
2022/07/05 12:59:34;;;;;;;7.05;2.80;;;;;;;;;;5034305;28;20079;-37
2022/07/05 13:02:00;;;;;;;3.58;2.13;;;;;;;;;;5031884;28;20018;-37
2022/07/05 13:04:25;;;;;;;6.40;2.15;;;;;;;;;;5033621;28;20029;-39
2022/07/05 13:06:52;;;;;;;5.40;2.45;;;;;;;;;;5032583;28;20179;-36
2022/07/05 13:09:33;;;;;;;5.60;2.78;;;;;;;;;;5034447;28;20026;-36
2022/07/05 13:12:08;;;;;;;3.03;2.10;;;;;;;;;;5032690;28;20056;-36
2022/07/05 13:14:34;;;;;;;4.53;3.13;;;;;;;;;;5033473;28;20021;-36
2022/07/05 13:16:59;;;;;;;5.82;2.50;;;;;;;;;;5032055;28;20032;-36
2022/07/05 13:19:25;;;;;;;5.72;2.20;;;;;;;;;;5034033;28;20028;-37
2022/07/05 13:21:50;;;;;;;3.88;2.10;;;;;;;;;;5031525;28;20040;-36
2022/07/05 13:24:15;;;;;;;3.60;2.20;;;;;;;;;;5032997;28;20476;-36
2022/07/05 13:26:41;;;;;;;2.75;2.55;;;;;;;;;;5033580;28;20455;-37
2022/07/05 13:29:06;;;;;;;5.20;2.20;;;;;;;;;;5033287;28;20028;-36
2022/07/05 13:31:32;;;;;;;4.50;2.58;;;;;;;;;;5031079;28;20033;-36
2022/07/05 13:33:58;;;;;;;3.08;2.05;;;;;;;;;;5033044;28;20025;-37
2022/07/05 13:36:23;;;;;;;2.75;2.28;;;;;;;;;;5031885;28;20084;-36
2022/07/05 13:38:49;;;;;;;5.60;2.63;;;;;;;;;;5029324;28;20063;-36
2022/07/05 13:41:14;;;;;;;3.67;1.88;;;;;;;;;;5029613;28;20017;-37
2022/07/05 13:43:40;;;;;;;3.13;2.20;;;;;;;;;;5031382;28;20022;-37
2022/07/05 13:46:05;;;;;;;3.08;2.00;;;;;;;;;;5028254;28;20083;-37
2022/07/05 13:48:31;;;;;;;4.30;2.03;;;;;;;;;;5030068;28;20037;-37
2022/07/05 13:50:56;;;;;;;7.68;2.70;;;;;;;;;;5028037;28;20030;-40
2022/07/05 13:53:21;;;;;;;2.93;2.07;;;;;;;;;;5030653;28;20109;-39
2022/07/05 13:55:47;;;;;;;5.40;2.45;;;;;;;;;;5033698;28;20329;-36
2022/07/05 13:58:12;;;;;;;3.45;2.72;;;;;;;;;;5030773;28;20049;-38
2022/07/05 14:00:37;;;;;;;2.78;2.58;;;;;;;;;;5028308;28;20029;-36
2022/07/05 14:03:03;;;;;;;4.22;1.83;;;;;;;;;;5030224;28;20433;-36
2022/07/05 14:05:28;;;;;;;4.47;2.10;;;;;;;;;;5028378;28;20026;-38
2022/07/05 14:07:54;;;;;;;3.40;2.13;;;;;;;;;;5030467;28;20465;-36
2022/07/05 14:10:19;;;;;;;3.50;2.10;;;;;;;;;;5029363;28;20060;-40
2022/07/05 14:12:44;;;;;;;4.47;1.95;;;;;;;;;;5030264;28;20022;-36
2022/07/05 14:15:10;;;;;;;2.58;2.05;;;;;;;;;;5026652;28;20389;-36
2022/07/05 14:17:35;;;;;;;7.68;2.20;;;;;;;;;;5030413;28;20087;-36
2022/07/05 14:20:01;;;;;;;3.05;2.35;;;;;;;;;;5030216;28;20021;-37
2022/07/05 14:22:26;;;;;;;2.70;2.33;;;;;;;;;;5028270;28;20033;-36
2022/07/05 14:24:51;;;;;;;3.80;1.95;;;;;;;;;;5030115;28;20060;-37
2022/07/05 14:27:17;;;;;;;3.67;2.08;;;;;;;;;;5030566;28;20057;-36
2022/07/05 14:29:42;;;;;;;6.30;2.60;;;;;;;;;;5038836;28;20461;-38
2022/07/05 14:32:08;;;;;;;8.10;2.03;;;;;;;;;;5029983;28;20040;-36
2022/07/05 14:34:33;;;;;;;5.00;1.63;;;;;;;;;;5026030;28;20029;-38
2022/07/05 14:36:59;;;;;;;2.22;1.90;;;;;;;;;;5031129;28;20017;-38
2022/07/05 14:39:24;;;;;;;3.10;1.90;;;;;;;;;;5030974;28;20025;-39
2022/07/05 14:41:50;;;;;;;3.00;1.60;;;;;;;;;;5031975;28;20036;-37
2022/07/05 14:44:15;;;;;;;1.90;1.73;;;;;;;;;;5031320;28;20021;-37
2022/07/05 14:46:40;;;;;;;5.53;2.15;;;;;;;;;;5032191;28;20326;-37
2022/07/05 14:49:06;;;;;;;3.10;1.90;;;;;;;;;;5032429;28;20025;-38